sensor_id;sensor_type;location;lat;lon;timestamp;P1;durP1;ratioP1;P2;durP2;ratioP2
56991;SDS011;42885;49.754;18.636;2023-02-28T00:00:15;36.65;;;15.25;;
56991;SDS011;42885;49.754;18.636;2023-02-28T00:03:06;36.25;;;15.45;;
56991;SDS011;42885;49.754;18.636;2023-02-28T00:05:55;33.23;;;14.87;;
56991;SDS011;42885;49.754;18.636;2023-02-28T00:08:44;30.88;;;14.15;;
56991;SDS011;42885;49.754;18.636;2023-02-28T00:11:35;31.00;;;14.10;;
56991;SDS011;42885;49.754;18.636;2023-02-28T00:14:25;27.93;;;13.22;;
56991;SDS011;42885;49.754;18.636;2023-02-28T00:17:14;27.20;;;14.13;;
56991;SDS011;42885;49.754;18.636;2023-02-28T00:20:05;30.40;;;13.98;;
56991;SDS011;42885;49.754;18.636;2023-02-28T00:22:57;26.00;;;13.72;;
56991;SDS011;42885;49.754;18.636;2023-02-28T00:25:47;26.42;;;13.90;;
56991;SDS011;42885;49.754;18.636;2023-02-28T00:28:37;30.90;;;14.10;;
56991;SDS011;42885;49.754;18.636;2023-02-28T00:31:26;28.12;;;14.20;;
56991;SDS011;42885;49.754;18.636;2023-02-28T00:34:16;27.20;;;14.53;;
56991;SDS011;42885;49.754;18.636;2023-02-28T00:37:05;27.95;;;14.25;;
56991;SDS011;42885;49.754;18.636;2023-02-28T00:39:56;30.70;;;14.78;;
56991;SDS011;42885;49.754;18.636;2023-02-28T00:42:47;28.55;;;14.75;;
56991;SDS011;42885;49.754;18.636;2023-02-28T00:45:38;28.55;;;14.53;;
56991;SDS011;42885;49.754;18.636;2023-02-28T00:48:27;34.67;;;15.47;;
56991;SDS011;42885;49.754;18.636;2023-02-28T00:51:17;31.55;;;14.87;;
56991;SDS011;42885;49.754;18.636;2023-02-28T00:54:06;30.08;;;15.75;;
56991;SDS011;42885;49.754;18.636;2023-02-28T00:56:55;28.35;;;14.98;;
56991;SDS011;42885;49.754;18.636;2023-02-28T00:59:45;26.07;;;13.58;;
56991;SDS011;42885;49.754;18.636;2023-02-28T01:02:34;28.02;;;14.95;;
56991;SDS011;42885;49.754;18.636;2023-02-28T01:05:23;29.45;;;15.35;;
56991;SDS011;42885;49.754;18.636;2023-02-28T01:08:13;31.37;;;14.93;;
56991;SDS011;42885;49.754;18.636;2023-02-28T01:11:08;30.75;;;16.00;;
56991;SDS011;42885;49.754;18.636;2023-02-28T01:14:00;29.63;;;15.55;;
56991;SDS011;42885;49.754;18.636;2023-02-28T01:16:49;35.33;;;15.95;;
56991;SDS011;42885;49.754;18.636;2023-02-28T01:19:39;31.00;;;15.38;;
56991;SDS011;42885;49.754;18.636;2023-02-28T01:22:30;29.23;;;15.30;;
56991;SDS011;42885;49.754;18.636;2023-02-28T01:25:19;30.55;;;14.70;;
56991;SDS011;42885;49.754;18.636;2023-02-28T01:28:08;29.18;;;15.75;;
56991;SDS011;42885;49.754;18.636;2023-02-28T01:30:57;30.77;;;15.78;;
56991;SDS011;42885;49.754;18.636;2023-02-28T01:33:46;28.30;;;14.30;;
56991;SDS011;42885;49.754;18.636;2023-02-28T01:36:36;28.10;;;14.40;;
56991;SDS011;42885;49.754;18.636;2023-02-28T01:39:25;30.40;;;16.17;;
56991;SDS011;42885;49.754;18.636;2023-02-28T01:42:16;34.30;;;16.77;;
56991;SDS011;42885;49.754;18.636;2023-02-28T01:45:18;27.55;;;15.08;;
56991;SDS011;42885;49.754;18.636;2023-02-28T01:48:18;26.55;;;14.70;;
56991;SDS011;42885;49.754;18.636;2023-02-28T01:51:10;27.65;;;14.93;;
56991;SDS011;42885;49.754;18.636;2023-02-28T01:54:02;29.75;;;13.95;;
56991;SDS011;42885;49.754;18.636;2023-02-28T01:57:00;26.05;;;13.58;;
56991;SDS011;42885;49.754;18.636;2023-02-28T02:00:00;27.27;;;13.13;;
56991;SDS011;42885;49.754;18.636;2023-02-28T02:02:57;26.30;;;13.28;;
56991;SDS011;42885;49.754;18.636;2023-02-28T02:05:50;31.68;;;14.40;;
56991;SDS011;42885;49.754;18.636;2023-02-28T02:08:40;32.23;;;15.38;;
56991;SDS011;42885;49.754;18.636;2023-02-28T02:11:29;28.17;;;15.63;;
56991;SDS011;42885;49.754;18.636;2023-02-28T02:14:26;26.57;;;15.45;;
56991;SDS011;42885;49.754;18.636;2023-02-28T02:43:15;28.75;;;14.70;;
56991;SDS011;42885;49.754;18.636;2023-02-28T02:46:06;25.17;;;13.68;;
56991;SDS011;42885;49.754;18.636;2023-02-28T02:48:53;34.90;;;18.20;;
56991;SDS011;42885;49.754;18.636;2023-02-28T02:51:44;31.90;;;17.20;;
56991;SDS011;42885;49.754;18.636;2023-02-28T02:54:37;36.13;;;17.52;;
56991;SDS011;42885;49.754;18.636;2023-02-28T02:57:30;32.25;;;16.30;;
56991;SDS011;42885;49.754;18.636;2023-02-28T03:00:20;41.13;;;20.37;;
56991;SDS011;42885;49.754;18.636;2023-02-28T03:03:11;35.23;;;18.70;;
56991;SDS011;42885;49.754;18.636;2023-02-28T03:06:02;28.57;;;15.58;;
56991;SDS011;42885;49.754;18.636;2023-02-28T03:08:54;26.37;;;14.00;;
56991;SDS011;42885;49.754;18.636;2023-02-28T03:11:43;24.80;;;12.90;;
56991;SDS011;42885;49.754;18.636;2023-02-28T03:14:36;23.73;;;13.65;;
56991;SDS011;42885;49.754;18.636;2023-02-28T03:23:35;24.47;;;12.88;;
56991;SDS011;42885;49.754;18.636;2023-02-28T03:26:22;25.12;;;13.70;;
56991;SDS011;42885;49.754;18.636;2023-02-28T03:29:26;27.87;;;13.97;;
56991;SDS011;42885;49.754;18.636;2023-02-28T03:32:14;25.03;;;13.50;;
56991;SDS011;42885;49.754;18.636;2023-02-28T03:35:20;25.37;;;13.87;;
56991;SDS011;42885;49.754;18.636;2023-02-28T03:38:16;22.77;;;13.73;;
56991;SDS011;42885;49.754;18.636;2023-02-28T03:41:22;20.92;;;13.18;;
56991;SDS011;42885;49.754;18.636;2023-02-28T03:47:33;22.90;;;13.37;;
56991;SDS011;42885;49.754;18.636;2023-02-28T03:50:27;27.02;;;13.60;;
56991;SDS011;42885;49.754;18.636;2023-02-28T03:53:32;25.32;;;12.43;;
56991;SDS011;42885;49.754;18.636;2023-02-28T03:56:24;25.12;;;13.18;;
56991;SDS011;42885;49.754;18.636;2023-02-28T04:02:09;26.40;;;13.90;;
56991;SDS011;42885;49.754;18.636;2023-02-28T04:05:00;23.47;;;12.73;;
56991;SDS011;42885;49.754;18.636;2023-02-28T04:07:50;21.52;;;12.60;;
56991;SDS011;42885;49.754;18.636;2023-02-28T04:10:39;21.82;;;12.53;;
56991;SDS011;42885;49.754;18.636;2023-02-28T04:13:31;22.00;;;12.80;;
56991;SDS011;42885;49.754;18.636;2023-02-28T04:16:19;24.98;;;13.03;;
56991;SDS011;42885;49.754;18.636;2023-02-28T04:19:10;22.00;;;12.25;;
56991;SDS011;42885;49.754;18.636;2023-02-28T04:22:00;25.82;;;14.55;;
56991;SDS011;42885;49.754;18.636;2023-02-28T04:24:50;25.45;;;13.60;;
56991;SDS011;42885;49.754;18.636;2023-02-28T04:27:40;29.35;;;15.05;;
56991;SDS011;42885;49.754;18.636;2023-02-28T04:30:32;25.25;;;14.47;;
56991;SDS011;42885;49.754;18.636;2023-02-28T04:33:22;23.60;;;13.13;;
56991;SDS011;42885;49.754;18.636;2023-02-28T04:36:11;23.55;;;12.58;;
56991;SDS011;42885;49.754;18.636;2023-02-28T04:39:02;21.85;;;11.70;;
56991;SDS011;42885;49.754;18.636;2023-02-28T04:41:51;20.62;;;11.75;;
56991;SDS011;42885;49.754;18.636;2023-02-28T04:44:40;18.77;;;11.68;;
56991;SDS011;42885;49.754;18.636;2023-02-28T04:47:29;23.80;;;12.10;;
56991;SDS011;42885;49.754;18.636;2023-02-28T04:50:19;21.83;;;11.93;;
56991;SDS011;42885;49.754;18.636;2023-02-28T04:53:08;25.57;;;14.00;;
56991;SDS011;42885;49.754;18.636;2023-02-28T04:55:57;29.00;;;13.90;;
56991;SDS011;42885;49.754;18.636;2023-02-28T04:58:48;30.60;;;15.10;;
56991;SDS011;42885;49.754;18.636;2023-02-28T05:01:38;29.48;;;15.38;;
56991;SDS011;42885;49.754;18.636;2023-02-28T05:04:27;29.23;;;15.20;;
56991;SDS011;42885;49.754;18.636;2023-02-28T05:07:17;25.37;;;14.60;;
56991;SDS011;42885;49.754;18.636;2023-02-28T05:10:06;35.88;;;15.65;;
56991;SDS011;42885;49.754;18.636;2023-02-28T05:12:55;29.95;;;15.68;;
56991;SDS011;42885;49.754;18.636;2023-02-28T05:15:44;26.10;;;16.30;;
56991;SDS011;42885;49.754;18.636;2023-02-28T05:18:34;32.23;;;17.07;;
56991;SDS011;42885;49.754;18.636;2023-02-28T05:21:32;26.55;;;16.82;;
56991;SDS011;42885;49.754;18.636;2023-02-28T05:24:19;28.30;;;16.75;;
56991;SDS011;42885;49.754;18.636;2023-02-28T05:27:10;28.90;;;17.07;;
56991;SDS011;42885;49.754;18.636;2023-02-28T05:30:00;28.95;;;16.35;;
56991;SDS011;42885;49.754;18.636;2023-02-28T05:32:51;28.52;;;16.07;;
56991;SDS011;42885;49.754;18.636;2023-02-28T05:35:40;28.95;;;16.32;;
56991;SDS011;42885;49.754;18.636;2023-02-28T05:38:32;27.50;;;17.12;;
56991;SDS011;42885;49.754;18.636;2023-02-28T05:41:21;31.10;;;17.17;;
56991;SDS011;42885;49.754;18.636;2023-02-28T05:44:11;32.90;;;17.23;;
56991;SDS011;42885;49.754;18.636;2023-02-28T05:47:01;38.17;;;17.52;;
56991;SDS011;42885;49.754;18.636;2023-02-28T05:49:50;34.40;;;18.42;;
56991;SDS011;42885;49.754;18.636;2023-02-28T05:52:40;33.67;;;18.70;;
56991;SDS011;42885;49.754;18.636;2023-02-28T05:55:29;43.13;;;21.50;;
56991;SDS011;42885;49.754;18.636;2023-02-28T05:58:18;202.22;;;81.05;;
56991;SDS011;42885;49.754;18.636;2023-02-28T06:04:20;116.77;;;50.35;;
56991;SDS011;42885;49.754;18.636;2023-02-28T06:07:12;108.07;;;47.48;;
56991;SDS011;42885;49.754;18.636;2023-02-28T06:10:01;55.92;;;29.00;;
56991;SDS011;42885;49.754;18.636;2023-02-28T06:12:51;44.18;;;22.93;;
56991;SDS011;42885;49.754;18.636;2023-02-28T06:15:40;58.25;;;28.73;;
56991;SDS011;42885;49.754;18.636;2023-02-28T06:18:30;127.05;;;48.13;;
56991;SDS011;42885;49.754;18.636;2023-02-28T06:21:20;120.08;;;47.88;;
56991;SDS011;42885;49.754;18.636;2023-02-28T06:24:09;76.50;;;35.55;;
56991;SDS011;42885;49.754;18.636;2023-02-28T06:26:58;101.85;;;42.95;;
56991;SDS011;42885;49.754;18.636;2023-02-28T06:29:48;90.35;;;40.75;;
56991;SDS011;42885;49.754;18.636;2023-02-28T06:32:39;57.88;;;29.80;;
56991;SDS011;42885;49.754;18.636;2023-02-28T06:35:27;63.28;;;31.60;;
56991;SDS011;42885;49.754;18.636;2023-02-28T06:38:16;54.03;;;26.00;;
56991;SDS011;42885;49.754;18.636;2023-02-28T06:41:05;42.23;;;23.53;;
56991;SDS011;42885;49.754;18.636;2023-02-28T06:43:55;37.03;;;21.57;;
56991;SDS011;42885;49.754;18.636;2023-02-28T06:46:44;41.42;;;21.73;;
56991;SDS011;42885;49.754;18.636;2023-02-28T06:49:34;37.98;;;21.50;;
56991;SDS011;42885;49.754;18.636;2023-02-28T06:52:24;41.20;;;21.55;;
56991;SDS011;42885;49.754;18.636;2023-02-28T06:55:13;39.20;;;20.95;;
56991;SDS011;42885;49.754;18.636;2023-02-28T06:58:03;37.88;;;22.00;;
56991;SDS011;42885;49.754;18.636;2023-02-28T07:00:53;37.73;;;22.40;;
56991;SDS011;42885;49.754;18.636;2023-02-28T07:03:42;41.68;;;22.25;;
56991;SDS011;42885;49.754;18.636;2023-02-28T07:06:32;39.70;;;21.87;;
56991;SDS011;42885;49.754;18.636;2023-02-28T07:09:22;42.33;;;21.82;;
56991;SDS011;42885;49.754;18.636;2023-02-28T07:12:13;37.15;;;20.97;;
56991;SDS011;42885;49.754;18.636;2023-02-28T07:15:01;43.87;;;22.50;;
56991;SDS011;42885;49.754;18.636;2023-02-28T07:17:50;40.45;;;21.90;;
56991;SDS011;42885;49.754;18.636;2023-02-28T07:20:42;36.77;;;21.23;;
56991;SDS011;42885;49.754;18.636;2023-02-28T07:23:30;38.13;;;20.82;;
56991;SDS011;42885;49.754;18.636;2023-02-28T07:26:20;39.13;;;21.07;;
56991;SDS011;42885;49.754;18.636;2023-02-28T07:29:09;39.13;;;20.83;;
56991;SDS011;42885;49.754;18.636;2023-02-28T07:31:58;42.43;;;21.50;;
56991;SDS011;42885;49.754;18.636;2023-02-28T07:34:47;35.92;;;19.62;;
56991;SDS011;42885;49.754;18.636;2023-02-28T07:37:37;32.42;;;19.75;;
56991;SDS011;42885;49.754;18.636;2023-02-28T07:40:29;44.35;;;27.67;;
56991;SDS011;42885;49.754;18.636;2023-02-28T07:43:18;35.88;;;20.30;;
56991;SDS011;42885;49.754;18.636;2023-02-28T07:46:09;34.43;;;20.27;;
56991;SDS011;42885;49.754;18.636;2023-02-28T07:49:00;37.25;;;19.85;;
56991;SDS011;42885;49.754;18.636;2023-02-28T07:51:50;35.28;;;19.67;;
56991;SDS011;42885;49.754;18.636;2023-02-28T07:54:39;33.80;;;20.23;;
56991;SDS011;42885;49.754;18.636;2023-02-28T07:57:28;36.03;;;20.40;;
56991;SDS011;42885;49.754;18.636;2023-02-28T08:00:18;35.25;;;20.32;;
56991;SDS011;42885;49.754;18.636;2023-02-28T08:03:10;34.90;;;21.52;;
56991;SDS011;42885;49.754;18.636;2023-02-28T08:06:00;31.57;;;19.40;;
56991;SDS011;42885;49.754;18.636;2023-02-28T08:08:50;32.48;;;18.12;;
56991;SDS011;42885;49.754;18.636;2023-02-28T08:11:40;30.20;;;17.93;;
56991;SDS011;42885;49.754;18.636;2023-02-28T08:14:30;25.90;;;15.83;;
56991;SDS011;42885;49.754;18.636;2023-02-28T08:17:19;24.05;;;14.50;;
56991;SDS011;42885;49.754;18.636;2023-02-28T08:20:09;25.17;;;15.83;;
56991;SDS011;42885;49.754;18.636;2023-02-28T08:22:58;28.02;;;15.65;;
56991;SDS011;42885;49.754;18.636;2023-02-28T08:25:54;23.32;;;14.25;;
56991;SDS011;42885;49.754;18.636;2023-02-28T08:28:43;25.27;;;14.93;;
56991;SDS011;42885;49.754;18.636;2023-02-28T08:31:32;24.55;;;15.03;;
56991;SDS011;42885;49.754;18.636;2023-02-28T08:34:22;26.30;;;16.20;;
56991;SDS011;42885;49.754;18.636;2023-02-28T08:37:11;26.27;;;15.85;;
56991;SDS011;42885;49.754;18.636;2023-02-28T08:39:59;28.50;;;17.13;;
56991;SDS011;42885;49.754;18.636;2023-02-28T08:42:49;32.28;;;17.90;;
56991;SDS011;42885;49.754;18.636;2023-02-28T08:45:38;27.62;;;16.90;;
56991;SDS011;42885;49.754;18.636;2023-02-28T08:48:30;32.65;;;16.65;;
56991;SDS011;42885;49.754;18.636;2023-02-28T08:51:20;24.87;;;15.50;;
56991;SDS011;42885;49.754;18.636;2023-02-28T08:54:11;27.52;;;14.73;;
56991;SDS011;42885;49.754;18.636;2023-02-28T08:57:02;24.32;;;14.38;;
56991;SDS011;42885;49.754;18.636;2023-02-28T08:59:52;22.73;;;12.80;;
56991;SDS011;42885;49.754;18.636;2023-02-28T09:02:41;20.82;;;11.70;;
56991;SDS011;42885;49.754;18.636;2023-02-28T09:05:30;16.27;;;10.63;;
56991;SDS011;42885;49.754;18.636;2023-02-28T09:08:20;16.82;;;10.72;;
56991;SDS011;42885;49.754;18.636;2023-02-28T09:11:10;28.40;;;25.43;;
56991;SDS011;42885;49.754;18.636;2023-02-28T09:14:00;20.10;;;11.90;;
56991;SDS011;42885;49.754;18.636;2023-02-28T09:16:50;15.10;;;10.90;;
56991;SDS011;42885;49.754;18.636;2023-02-28T09:19:40;42.20;;;25.52;;
56991;SDS011;42885;49.754;18.636;2023-02-28T09:22:30;17.80;;;10.80;;
56991;SDS011;42885;49.754;18.636;2023-02-28T09:25:19;17.00;;;10.63;;
56991;SDS011;42885;49.754;18.636;2023-02-28T09:28:09;19.35;;;11.12;;
56991;SDS011;42885;49.754;18.636;2023-02-28T09:30:58;19.07;;;11.73;;
56991;SDS011;42885;49.754;18.636;2023-02-28T09:33:48;18.80;;;11.90;;
56991;SDS011;42885;49.754;18.636;2023-02-28T09:36:40;17.00;;;10.05;;
56991;SDS011;42885;49.754;18.636;2023-02-28T09:39:29;17.35;;;11.12;;
56991;SDS011;42885;49.754;18.636;2023-02-28T09:42:21;20.00;;;10.90;;
56991;SDS011;42885;49.754;18.636;2023-02-28T09:45:20;18.80;;;10.85;;
56991;SDS011;42885;49.754;18.636;2023-02-28T09:48:31;20.05;;;11.73;;
56991;SDS011;42885;49.754;18.636;2023-02-28T09:51:27;17.20;;;10.88;;
56991;SDS011;42885;49.754;18.636;2023-02-28T09:54:32;17.87;;;11.78;;
56991;SDS011;42885;49.754;18.636;2023-02-28T10:00:22;18.98;;;11.30;;
56991;SDS011;42885;49.754;18.636;2023-02-28T10:03:32;18.65;;;11.05;;
56991;SDS011;42885;49.754;18.636;2023-02-28T10:06:29;18.02;;;11.28;;
56991;SDS011;42885;49.754;18.636;2023-02-28T10:09:25;18.65;;;10.98;;
56991;SDS011;42885;49.754;18.636;2023-02-28T10:12:12;21.68;;;11.65;;
56991;SDS011;42885;49.754;18.636;2023-02-28T10:15:03;19.10;;;11.55;;
56991;SDS011;42885;49.754;18.636;2023-02-28T10:17:54;19.85;;;11.22;;
56991;SDS011;42885;49.754;18.636;2023-02-28T10:20:44;16.48;;;10.90;;
56991;SDS011;42885;49.754;18.636;2023-02-28T10:23:35;18.92;;;11.28;;
56991;SDS011;42885;49.754;18.636;2023-02-28T10:26:25;18.65;;;11.43;;
56991;SDS011;42885;49.754;18.636;2023-02-28T10:29:18;18.73;;;11.18;;
56991;SDS011;42885;49.754;18.636;2023-02-28T10:32:08;21.00;;;10.80;;
56991;SDS011;42885;49.754;18.636;2023-02-28T10:35:00;20.37;;;10.70;;
56991;SDS011;42885;49.754;18.636;2023-02-28T10:38:00;17.12;;;10.43;;
56991;SDS011;42885;49.754;18.636;2023-02-28T10:40:52;25.20;;;10.13;;
56991;SDS011;42885;49.754;18.636;2023-02-28T10:43:53;19.57;;;10.38;;
56991;SDS011;42885;49.754;18.636;2023-02-28T10:47:04;18.40;;;11.10;;
56991;SDS011;42885;49.754;18.636;2023-02-28T10:49:54;14.85;;;10.05;;
56991;SDS011;42885;49.754;18.636;2023-02-28T10:52:43;14.45;;;9.80;;
56991;SDS011;42885;49.754;18.636;2023-02-28T10:55:32;13.85;;;9.23;;
56991;SDS011;42885;49.754;18.636;2023-02-28T10:58:21;18.17;;;9.75;;
56991;SDS011;42885;49.754;18.636;2023-02-28T11:01:13;15.28;;;9.18;;
56991;SDS011;42885;49.754;18.636;2023-02-28T11:04:20;17.25;;;9.93;;
56991;SDS011;42885;49.754;18.636;2023-02-28T11:07:25;18.75;;;10.63;;
56991;SDS011;42885;49.754;18.636;2023-02-28T11:10:16;15.60;;;10.15;;
56991;SDS011;42885;49.754;18.636;2023-02-28T11:13:02;16.07;;;10.85;;
56991;SDS011;42885;49.754;18.636;2023-02-28T11:15:58;22.45;;;12.47;;
56991;SDS011;42885;49.754;18.636;2023-02-28T11:18:55;18.17;;;11.73;;
56991;SDS011;42885;49.754;18.636;2023-02-28T11:21:52;15.70;;;11.22;;
56991;SDS011;42885;49.754;18.636;2023-02-28T11:24:45;18.02;;;10.80;;
56991;SDS011;42885;49.754;18.636;2023-02-28T11:30:36;14.40;;;10.03;;
56991;SDS011;42885;49.754;18.636;2023-02-28T11:33:28;12.63;;;9.68;;
56991;SDS011;42885;49.754;18.636;2023-02-28T11:36:21;17.82;;;11.33;;
56991;SDS011;42885;49.754;18.636;2023-02-28T11:39:15;14.83;;;10.10;;
56991;SDS011;42885;49.754;18.636;2023-02-28T11:48:14;14.53;;;10.80;;
56991;SDS011;42885;49.754;18.636;2023-02-28T11:51:33;16.75;;;10.65;;
56991;SDS011;42885;49.754;18.636;2023-02-28T11:54:41;15.03;;;10.43;;
56991;SDS011;42885;49.754;18.636;2023-02-28T12:04:02;14.40;;;10.70;;
56991;SDS011;42885;49.754;18.636;2023-02-28T12:07:29;17.82;;;12.35;;
56991;SDS011;42885;49.754;18.636;2023-02-28T12:10:29;13.62;;;10.03;;
56991;SDS011;42885;49.754;18.636;2023-02-28T12:16:38;16.80;;;11.93;;
56991;SDS011;42885;49.754;18.636;2023-02-28T12:19:56;16.12;;;11.70;;
56991;SDS011;42885;49.754;18.636;2023-02-28T12:26:02;13.30;;;10.88;;
56991;SDS011;42885;49.754;18.636;2023-02-28T12:29:23;13.13;;;10.60;;
56991;SDS011;42885;49.754;18.636;2023-02-28T12:32:18;16.80;;;11.30;;
56991;SDS011;42885;49.754;18.636;2023-02-28T12:35:16;14.50;;;11.37;;
56991;SDS011;42885;49.754;18.636;2023-02-28T12:38:24;15.87;;;10.90;;
56991;SDS011;42885;49.754;18.636;2023-02-28T12:41:14;16.93;;;11.70;;
56991;SDS011;42885;49.754;18.636;2023-02-28T12:44:17;17.30;;;12.13;;
56991;SDS011;42885;49.754;18.636;2023-02-28T12:47:09;14.30;;;11.53;;
56991;SDS011;42885;49.754;18.636;2023-02-28T12:50:09;13.93;;;11.12;;
56991;SDS011;42885;49.754;18.636;2023-02-28T12:53:02;16.78;;;11.48;;
56991;SDS011;42885;49.754;18.636;2023-02-28T12:56:07;16.20;;;11.43;;
56991;SDS011;42885;49.754;18.636;2023-02-28T12:58:59;16.17;;;11.23;;
56991;SDS011;42885;49.754;18.636;2023-02-28T13:05:06;16.83;;;12.07;;
56991;SDS011;42885;49.754;18.636;2023-02-28T13:11:25;18.92;;;12.35;;
56991;SDS011;42885;49.754;18.636;2023-02-28T13:14:23;17.17;;;11.90;;
56991;SDS011;42885;49.754;18.636;2023-02-28T13:17:17;14.90;;;12.23;;
56991;SDS011;42885;49.754;18.636;2023-02-28T13:20:14;17.23;;;12.80;;
56991;SDS011;42885;49.754;18.636;2023-02-28T13:23:03;14.97;;;12.10;;
56991;SDS011;42885;49.754;18.636;2023-02-28T13:25:55;18.37;;;12.65;;
56991;SDS011;42885;49.754;18.636;2023-02-28T13:40:41;17.00;;;13.50;;
56991;SDS011;42885;49.754;18.636;2023-02-28T13:43:58;14.25;;;12.13;;
56991;SDS011;42885;49.754;18.636;2023-02-28T13:49:40;18.80;;;12.75;;
56991;SDS011;42885;49.754;18.636;2023-02-28T13:52:29;16.73;;;12.35;;
56991;SDS011;42885;49.754;18.636;2023-02-28T13:58:37;17.77;;;12.07;;
56991;SDS011;42885;49.754;18.636;2023-02-28T14:01:37;17.70;;;11.97;;
56991;SDS011;42885;49.754;18.636;2023-02-28T14:07:49;17.20;;;11.93;;
56991;SDS011;42885;49.754;18.636;2023-02-28T14:10:48;15.18;;;11.60;;
56991;SDS011;42885;49.754;18.636;2023-02-28T14:13:39;16.45;;;11.93;;
56991;SDS011;42885;49.754;18.636;2023-02-28T14:16:35;16.95;;;12.40;;
56991;SDS011;42885;49.754;18.636;2023-02-28T14:19:30;20.80;;;13.38;;
56991;SDS011;42885;49.754;18.636;2023-02-28T14:25:37;16.23;;;11.45;;
56991;SDS011;42885;49.754;18.636;2023-02-28T14:28:43;19.42;;;12.80;;
56991;SDS011;42885;49.754;18.636;2023-02-28T14:31:47;21.50;;;12.10;;
56991;SDS011;42885;49.754;18.636;2023-02-28T14:34:43;26.57;;;11.85;;
56991;SDS011;42885;49.754;18.636;2023-02-28T14:37:39;21.37;;;11.78;;
56991;SDS011;42885;49.754;18.636;2023-02-28T14:40:32;19.25;;;12.53;;
56991;SDS011;42885;49.754;18.636;2023-02-28T14:43:23;19.15;;;12.53;;
56991;SDS011;42885;49.754;18.636;2023-02-28T14:46:13;16.60;;;11.18;;
56991;SDS011;42885;49.754;18.636;2023-02-28T14:49:04;19.62;;;11.85;;
56991;SDS011;42885;49.754;18.636;2023-02-28T14:55:06;19.80;;;10.87;;
56991;SDS011;42885;49.754;18.636;2023-02-28T14:57:59;19.95;;;11.28;;
56991;SDS011;42885;49.754;18.636;2023-02-28T15:00:51;18.03;;;10.80;;
56991;SDS011;42885;49.754;18.636;2023-02-28T15:03:43;16.67;;;10.95;;
56991;SDS011;42885;49.754;18.636;2023-02-28T15:06:34;20.48;;;10.93;;
56991;SDS011;42885;49.754;18.636;2023-02-28T15:09:24;16.27;;;10.08;;
56991;SDS011;42885;49.754;18.636;2023-02-28T15:12:13;17.50;;;10.30;;
56991;SDS011;42885;49.754;18.636;2023-02-28T15:15:03;16.45;;;10.40;;
56991;SDS011;42885;49.754;18.636;2023-02-28T15:17:56;17.73;;;10.35;;
56991;SDS011;42885;49.754;18.636;2023-02-28T15:20:46;18.10;;;11.43;;
56991;SDS011;42885;49.754;18.636;2023-02-28T15:23:37;19.37;;;11.55;;
56991;SDS011;42885;49.754;18.636;2023-02-28T15:26:30;17.20;;;10.70;;
56991;SDS011;42885;49.754;18.636;2023-02-28T15:29:23;17.85;;;10.53;;
56991;SDS011;42885;49.754;18.636;2023-02-28T15:32:28;20.23;;;11.50;;
56991;SDS011;42885;49.754;18.636;2023-02-28T15:38:27;19.87;;;11.93;;
56991;SDS011;42885;49.754;18.636;2023-02-28T15:41:58;20.07;;;11.10;;
56991;SDS011;42885;49.754;18.636;2023-02-28T15:44:23;20.53;;;12.17;;
56991;SDS011;42885;49.754;18.636;2023-02-28T15:47:18;22.35;;;11.53;;
56991;SDS011;42885;49.754;18.636;2023-02-28T15:50:10;20.60;;;11.63;;
56991;SDS011;42885;49.754;18.636;2023-02-28T15:53:02;20.37;;;12.53;;
56991;SDS011;42885;49.754;18.636;2023-02-28T15:55:57;26.25;;;14.58;;
56991;SDS011;42885;49.754;18.636;2023-02-28T15:58:44;34.25;;;17.50;;
56991;SDS011;42885;49.754;18.636;2023-02-28T16:01:34;41.00;;;20.43;;
56991;SDS011;42885;49.754;18.636;2023-02-28T16:04:25;25.17;;;15.00;;
56991;SDS011;42885;49.754;18.636;2023-02-28T16:07:16;27.77;;;15.37;;
56991;SDS011;42885;49.754;18.636;2023-02-28T16:10:06;27.10;;;14.53;;
56991;SDS011;42885;49.754;18.636;2023-02-28T16:12:58;26.00;;;14.03;;
56991;SDS011;42885;49.754;18.636;2023-02-28T16:15:47;24.65;;;13.95;;
56991;SDS011;42885;49.754;18.636;2023-02-28T16:18:38;25.05;;;13.93;;
56991;SDS011;42885;49.754;18.636;2023-02-28T16:21:27;27.32;;;15.72;;
56991;SDS011;42885;49.754;18.636;2023-02-28T16:24:17;30.88;;;15.68;;
56991;SDS011;42885;49.754;18.636;2023-02-28T16:27:07;37.87;;;21.13;;
56991;SDS011;42885;49.754;18.636;2023-02-28T16:30:09;34.67;;;16.12;;
56991;SDS011;42885;49.754;18.636;2023-02-28T16:33:00;32.83;;;17.40;;
56991;SDS011;42885;49.754;18.636;2023-02-28T16:35:50;41.18;;;21.60;;
56991;SDS011;42885;49.754;18.636;2023-02-28T16:38:40;40.75;;;19.80;;
56991;SDS011;42885;49.754;18.636;2023-02-28T16:41:29;38.58;;;19.07;;
56991;SDS011;42885;49.754;18.636;2023-02-28T16:44:23;31.50;;;16.45;;
56991;SDS011;42885;49.754;18.636;2023-02-28T16:47:12;39.50;;;17.17;;
56991;SDS011;42885;49.754;18.636;2023-02-28T16:50:01;36.85;;;17.48;;
56991;SDS011;42885;49.754;18.636;2023-02-28T16:52:52;39.05;;;18.82;;
56991;SDS011;42885;49.754;18.636;2023-02-28T16:55:42;36.65;;;19.52;;
56991;SDS011;42885;49.754;18.636;2023-02-28T16:58:30;38.20;;;19.52;;
56991;SDS011;42885;49.754;18.636;2023-02-28T17:01:22;42.33;;;20.85;;
56991;SDS011;42885;49.754;18.636;2023-02-28T17:04:11;53.25;;;23.92;;
56991;SDS011;42885;49.754;18.636;2023-02-28T17:07:01;42.15;;;22.85;;
56991;SDS011;42885;49.754;18.636;2023-02-28T17:09:51;43.85;;;22.65;;
56991;SDS011;42885;49.754;18.636;2023-02-28T17:12:40;43.98;;;22.02;;
56991;SDS011;42885;49.754;18.636;2023-02-28T17:15:29;45.38;;;22.67;;
56991;SDS011;42885;49.754;18.636;2023-02-28T17:18:18;38.95;;;20.85;;
56991;SDS011;42885;49.754;18.636;2023-02-28T17:21:15;41.35;;;21.55;;
56991;SDS011;42885;49.754;18.636;2023-02-28T17:24:04;45.40;;;22.27;;
56991;SDS011;42885;49.754;18.636;2023-02-28T17:26:54;38.20;;;21.73;;
56991;SDS011;42885;49.754;18.636;2023-02-28T17:29:43;43.02;;;21.85;;
56991;SDS011;42885;49.754;18.636;2023-02-28T17:32:34;41.65;;;24.00;;
56991;SDS011;42885;49.754;18.636;2023-02-28T17:35:23;40.90;;;23.32;;
56991;SDS011;42885;49.754;18.636;2023-02-28T17:38:17;47.47;;;27.70;;
56991;SDS011;42885;49.754;18.636;2023-02-28T17:41:12;55.83;;;32.70;;
56991;SDS011;42885;49.754;18.636;2023-02-28T17:44:01;50.67;;;29.37;;
56991;SDS011;42885;49.754;18.636;2023-02-28T17:46:50;50.12;;;28.62;;
56991;SDS011;42885;49.754;18.636;2023-02-28T17:49:41;61.68;;;31.57;;
56991;SDS011;42885;49.754;18.636;2023-02-28T17:52:31;59.80;;;30.55;;
56991;SDS011;42885;49.754;18.636;2023-02-28T17:55:22;57.60;;;29.87;;
56991;SDS011;42885;49.754;18.636;2023-02-28T17:58:10;50.17;;;29.15;;
56991;SDS011;42885;49.754;18.636;2023-02-28T18:01:00;49.93;;;26.95;;
56991;SDS011;42885;49.754;18.636;2023-02-28T18:03:50;56.98;;;30.05;;
56991;SDS011;42885;49.754;18.636;2023-02-28T18:06:40;51.60;;;28.95;;
56991;SDS011;42885;49.754;18.636;2023-02-28T18:09:37;56.35;;;28.75;;
56991;SDS011;42885;49.754;18.636;2023-02-28T18:12:26;53.53;;;28.83;;
56991;SDS011;42885;49.754;18.636;2023-02-28T18:15:16;50.85;;;27.50;;